Time,TemperatureF,DewpointF,PressureIn,WindDirection,WindDirectionDegrees,WindSpeedMPH,WindSpeedGustMPH,Humidity,HourlyPrecipIn,Conditions,Clouds,dailyrainin,SoftwareType,DateUTC
2013-02-23 00:08:00,31.6,26.0,30.17,SSE,159,7.0,9.0,81,0.00,,,0.00,weatherlink.com 1.10,2013-02-23 05:08:00,
2013-02-23 00:23:00,31.6,27.0,30.16,SE,131,7.0,13.0,82,0.00,,,0.00,weatherlink.com 1.10,2013-02-23 05:23:00,
2013-02-23 00:38:00,31.6,27.0,30.16,SE,134,3.0,11.0,82,0.00,,,0.00,weatherlink.com 1.10,2013-02-23 05:38:00,
2013-02-23 00:53:00,31.7,27.0,30.16,SSE,159,6.0,10.0,82,0.00,,,0.00,weatherlink.com 1.10,2013-02-23 05:53:00,
2013-02-23 01:08:00,31.9,27.0,30.15,South,180,6.0,13.0,82,0.00,,,0.00,weatherlink.com 1.10,2013-02-23 06:08:00,
2013-02-23 01:23:00,32.0,27.0,30.15,South,172,8.0,10.0,81,0.00,,,0.00,weatherlink.com 1.10,2013-02-23 06:23:00,
2013-02-23 01:38:00,32.1,27.0,30.15,SSW,193,5.0,10.0,82,0.00,,,0.00,weatherlink.com 1.10,2013-02-23 06:38:00,
2013-02-23 01:53:00,32.1,27.0,30.15,SSE,164,2.0,12.0,82,0.00,,,0.00,weatherlink.com 1.10,2013-02-23 06:53:00,
2013-02-23 02:08:00,32.2,27.0,30.14,SSE,158,6.0,11.0,82,0.00,,,0.00,weatherlink.com 1.10,2013-02-23 07:08:00,
2013-02-23 02:23:00,32.4,28.0,30.13,SE,139,11.0,13.0,82,0.00,,,0.00,weatherlink.com 1.10,2013-02-23 07:23:00,
2013-02-23 02:38:00,32.5,28.0,30.13,SSE,150,5.0,11.0,83,0.00,,,0.00,weatherlink.com 1.10,2013-02-23 07:38:00,
2013-02-23 02:53:00,32.5,28.0,30.12,SSE,150,4.0,11.0,83,0.00,,,0.00,weatherlink.com 1.10,2013-02-23 07:53:00,
2013-02-23 03:08:00,32.5,28.0,30.12,SSE,148,5.0,9.0,84,0.00,,,0.00,weatherlink.com 1.10,2013-02-23 08:08:00,
2013-02-23 03:23:00,32.4,28.0,30.11,SSE,150,4.0,8.0,84,0.00,,,0.00,weatherlink.com 1.10,2013-02-23 08:23:00,
2013-02-23 03:38:00,32.5,28.0,30.10,SSE,166,2.0,7.0,84,0.00,,,0.00,weatherlink.com 1.10,2013-02-23 08:38:00,
2013-02-23 03:53:00,32.6,29.0,30.09,ESE,115,0.0,6.0,85,0.00,,,0.00,weatherlink.com 1.10,2013-02-23 08:53:00,
2013-02-23 04:08:00,32.6,29.0,30.09,South,169,3.0,6.0,85,0.00,,,0.00,weatherlink.com 1.10,2013-02-23 09:08:00,
2013-02-23 04:24:00,32.7,29.0,30.08,SE,139,3.0,5.0,85,0.00,,,0.00,weatherlink.com 1.10,2013-02-23 09:24:00,
2013-02-23 04:39:00,32.8,29.0,30.08,SSE,148,0.0,3.0,86,0.00,,,0.00,weatherlink.com 1.10,2013-02-23 09:39:00,
2013-02-23 04:54:00,33.1,29.0,30.08,SE,125,3.0,5.0,85,0.00,,,0.00,weatherlink.com 1.10,2013-02-23 09:54:00,
2013-02-23 05:09:00,33.2,29.0,30.07,SE,141,0.0,5.0,85,0.00,,,0.00,weatherlink.com 1.10,2013-02-23 10:09:00,
2013-02-23 05:24:00,33.3,30.0,30.08,South,181,1.0,2.0,86,0.00,,,0.00,weatherlink.com 1.10,2013-02-23 10:24:00,
2013-02-23 05:39:00,33.2,30.0,30.07,SE,145,0.0,1.0,86,0.00,,,0.00,weatherlink.com 1.10,2013-02-23 10:39:00,
2013-02-23 05:54:00,33.2,30.0,30.07,SE,135,0.0,1.0,86,0.00,,,0.00,weatherlink.com 1.10,2013-02-23 10:54:00,
2013-02-23 06:09:00,33.3,30.0,30.08,SSE,152,0.0,2.0,87,0.00,,,0.00,weatherlink.com 1.10,2013-02-23 11:09:00,
2013-02-23 06:24:00,33.3,30.0,30.08,SW,218,1.0,4.0,87,0.00,,,0.00,weatherlink.com 1.10,2013-02-23 11:24:00,
2013-02-23 06:39:00,33.1,30.0,30.07,South,191,0.0,2.0,87,0.00,,,0.00,weatherlink.com 1.10,2013-02-23 11:39:00,
2013-02-23 06:54:00,32.6,29.0,30.07,North,11,2.0,2.0,87,0.00,,,0.00,weatherlink.com 1.10,2013-02-23 11:54:00,
2013-02-23 07:09:00,32.1,29.0,30.07,North,10,2.0,4.0,88,0.00,,,0.00,weatherlink.com 1.10,2013-02-23 12:09:00,
2013-02-23 07:24:00,32.0,29.0,30.07,North,356,1.0,2.0,89,0.00,,,0.00,weatherlink.com 1.10,2013-02-23 12:24:00,
2013-02-23 07:39:00,32.0,29.0,30.06,NNW,340,2.0,2.0,90,0.00,,,0.00,weatherlink.com 1.10,2013-02-23 12:39:00,
2013-02-23 07:54:00,32.0,29.0,30.06,North,357,1.0,1.0,90,0.00,,,0.00,weatherlink.com 1.10,2013-02-23 12:54:00,
2013-02-23 08:09:00,32.3,30.0,30.05,East,82,0.0,1.0,91,0.00,,,0.00,weatherlink.com 1.10,2013-02-23 13:09:00,
2013-02-23 08:24:00,32.6,30.0,30.04,East,79,0.0,1.0,90,0.00,,,0.00,weatherlink.com 1.10,2013-02-23 13:24:00,
2013-02-23 08:39:00,33.1,31.0,30.04,NW,316,0.0,4.0,90,0.00,,,0.00,weatherlink.com 1.10,2013-02-23 13:39:00,
2013-02-23 08:54:00,33.1,31.0,30.03,NNE,14,1.0,3.0,90,0.00,,,0.00,weatherlink.com 1.10,2013-02-23 13:54:00,
2013-02-23 09:09:00,33.3,31.0,30.03,NNW,333,0.0,2.0,90,0.00,,,0.00,weatherlink.com 1.10,2013-02-23 14:09:00,
2013-02-23 09:24:00,33.6,31.0,30.03,WSW,239,1.0,2.0,90,0.00,,,0.00,weatherlink.com 1.10,2013-02-23 14:24:00,
2013-02-23 09:39:00,33.9,31.0,30.03,West,264,1.0,2.0,90,0.00,,,0.00,weatherlink.com 1.10,2013-02-23 14:39:00,
2013-02-23 09:54:00,33.8,31.0,30.02,NNE,33,0.0,1.0,90,0.00,,,0.00,weatherlink.com 1.10,2013-02-23 14:54:00,
2013-02-23 10:09:00,33.9,32.0,30.02,North,5,0.0,1.0,91,0.00,,,0.00,weatherlink.com 1.10,2013-02-23 15:09:00,
2013-02-23 10:24:00,34.1,32.0,30.01,West,260,0.0,1.0,91,0.00,,,0.00,weatherlink.com 1.10,2013-02-23 15:24:00,
2013-02-23 10:39:00,34.7,32.0,30.01,NW,308,0.0,1.0,91,0.00,,,0.00,weatherlink.com 1.10,2013-02-23 15:39:00,
2013-02-23 10:54:00,34.6,32.0,30.01,WSW,240,2.0,4.0,91,0.00,,,0.00,weatherlink.com 1.10,2013-02-23 15:54:00,
2013-02-23 11:09:00,34.8,33.0,30.00,NW,306,1.0,3.0,92,0.00,,,0.00,weatherlink.com 1.10,2013-02-23 16:09:00,
2013-02-23 11:24:00,34.4,32.0,30.00,NW,314,1.0,5.0,92,0.00,,,0.00,weatherlink.com 1.10,2013-02-23 16:24:00,
2013-02-23 11:39:00,34.2,32.0,29.99,North,4,5.0,6.0,92,0.00,,,0.00,weatherlink.com 1.10,2013-02-23 16:39:00,
2013-02-23 11:54:00,35.1,33.0,29.98,NE,54,0.0,3.0,93,0.00,,,0.00,weatherlink.com 1.10,2013-02-23 16:54:00,
2013-02-23 12:09:00,36.1,34.0,29.98,WNW,295,2.0,5.0,91,0.00,,,0.00,weatherlink.com 1.10,2013-02-23 17:09:00,
2013-02-23 12:24:00,36.9,34.0,29.97,West,267,0.0,4.0,90,0.00,,,0.00,weatherlink.com 1.10,2013-02-23 17:24:00,
2013-02-23 12:39:00,37.7,35.0,29.96,WNW,293,1.0,4.0,89,0.00,,,0.00,weatherlink.com 1.10,2013-02-23 17:39:00,
2013-02-23 12:54:00,38.8,35.0,29.95,ENE,60,1.0,4.0,86,0.00,,,0.00,weatherlink.com 1.10,2013-02-23 17:54:00,
2013-02-23 13:09:00,39.5,35.0,29.95,WSW,253,0.0,4.0,84,0.00,,,0.00,weatherlink.com 1.10,2013-02-23 18:09:00,
2013-02-23 13:25:00,39.7,36.0,29.95,NNE,23,1.0,-999.0,85,-99.99,,,0.00,weatherlink.com 1.10,2013-02-23 18:25:00,
2013-02-23 13:40:00,40.6,36.0,29.94,ENE,64,0.0,7.0,84,0.00,,,0.00,weatherlink.com 1.10,2013-02-23 18:40:00,
2013-02-23 13:55:00,40.9,36.0,29.93,North,356,2.0,6.0,83,0.00,,,0.00,weatherlink.com 1.10,2013-02-23 18:55:00,
2013-02-23 14:10:00,41.2,36.0,29.92,North,359,5.0,8.0,83,0.00,,,0.00,weatherlink.com 1.10,2013-02-23 19:10:00,
2013-02-23 14:25:00,42.1,37.0,29.92,North,354,0.0,5.0,81,0.00,,,0.00,weatherlink.com 1.10,2013-02-23 19:25:00,
2013-02-23 14:40:00,42.0,37.0,29.91,North,354,3.0,5.0,81,0.00,,,0.00,weatherlink.com 1.10,2013-02-23 19:40:00,
2013-02-23 14:55:00,42.5,37.0,29.90,WNW,290,2.0,5.0,81,0.00,,,0.00,weatherlink.com 1.10,2013-02-23 19:55:00,
2013-02-23 15:10:00,42.3,37.0,29.90,NW,325,2.0,5.0,82,0.00,,,0.00,weatherlink.com 1.10,2013-02-23 20:10:00,
2013-02-23 15:25:00,42.9,37.0,29.89,West,269,1.0,5.0,81,0.00,,,0.00,weatherlink.com 1.10,2013-02-23 20:25:00,
2013-02-23 15:40:00,42.7,37.0,29.88,North,354,3.0,6.0,81,0.00,,,0.00,weatherlink.com 1.10,2013-02-23 20:40:00,
2013-02-23 15:55:00,42.4,37.0,29.88,NNW,333,2.0,5.0,82,0.00,,,0.00,weatherlink.com 1.10,2013-02-23 20:55:00,
2013-02-23 16:10:00,42.9,38.0,29.87,NNE,19,2.0,4.0,82,0.00,,,0.00,weatherlink.com 1.10,2013-02-23 21:10:00,
2013-02-23 16:25:00,43.5,38.0,29.86,WNW,295,2.0,4.0,80,0.00,,,0.00,weatherlink.com 1.10,2013-02-23 21:25:00,
2013-02-23 16:40:00,43.9,38.0,29.87,WNW,302,1.0,3.0,81,0.00,,,0.00,weatherlink.com 1.10,2013-02-23 21:40:00,
2013-02-23 16:55:00,44.1,38.0,29.87,NW,309,2.0,4.0,79,0.00,,,0.00,weatherlink.com 1.10,2013-02-23 21:55:00,
2013-02-23 17:10:00,43.3,38.0,29.86,North,360,3.0,5.0,81,0.00,,,0.00,weatherlink.com 1.10,2013-02-23 22:10:00,
2013-02-23 17:25:00,43.3,38.0,29.86,NE,36,1.0,4.0,81,0.00,,,0.00,weatherlink.com 1.10,2013-02-23 22:25:00,
2013-02-23 17:40:00,42.6,38.0,29.87,NNW,344,1.0,3.0,82,0.00,,,0.00,weatherlink.com 1.10,2013-02-23 22:40:00,
2013-02-23 17:55:00,41.8,37.0,29.86,NNW,334,1.0,4.0,83,0.00,,,0.00,weatherlink.com 1.10,2013-02-23 22:55:00,
2013-02-23 18:10:00,41.1,37.0,29.86,NW,326,2.0,4.0,84,0.00,,,0.00,weatherlink.com 1.10,2013-02-23 23:10:00,
2013-02-23 18:25:00,40.9,36.0,29.86,North,6,1.0,2.0,84,0.00,,,0.00,weatherlink.com 1.10,2013-02-23 23:25:00,
2013-02-23 18:40:00,40.7,37.0,29.87,WNW,293,3.0,4.0,85,0.00,,,0.00,weatherlink.com 1.10,2013-02-23 23:40:00,
2013-02-23 18:55:00,40.7,37.0,29.87,NW,307,2.0,4.0,85,0.00,,,0.00,weatherlink.com 1.10,2013-02-23 23:55:00,
2013-02-23 19:10:00,40.3,36.0,29.87,NNW,332,5.0,7.0,85,0.00,,,0.00,weatherlink.com 1.10,2013-02-24 00:10:00,
2013-02-23 19:25:00,39.9,36.0,29.86,NNW,345,3.0,5.0,85,0.00,,,0.00,weatherlink.com 1.10,2013-02-24 00:25:00,
2013-02-23 19:40:00,39.5,36.0,29.86,NNW,348,2.0,5.0,86,0.00,,,0.00,weatherlink.com 1.10,2013-02-24 00:40:00,
2013-02-23 19:55:00,39.2,36.0,29.85,North,353,4.0,4.0,87,0.00,,,0.00,weatherlink.com 1.10,2013-02-24 00:55:00,
2013-02-23 20:10:00,38.9,36.0,29.84,NNE,19,0.0,6.0,88,0.00,,,0.00,weatherlink.com 1.10,2013-02-24 01:10:00,
2013-02-23 20:25:00,38.6,35.0,29.84,NNW,341,4.0,5.0,88,0.00,,,0.00,weatherlink.com 1.10,2013-02-24 01:25:00,
2013-02-23 20:40:00,38.4,36.0,29.84,NNW,339,2.0,4.0,89,0.00,,,0.00,weatherlink.com 1.10,2013-02-24 01:40:00,
2013-02-23 20:55:00,38.5,36.0,29.85,SSW,211,0.0,4.0,89,0.00,,,0.00,weatherlink.com 1.10,2013-02-24 01:55:00,
2013-02-23 21:10:00,38.4,36.0,29.85,NNW,340,3.0,4.0,89,0.00,,,0.00,weatherlink.com 1.10,2013-02-24 02:10:00,
2013-02-23 21:40:00,38.5,36.0,29.85,NW,308,0.0,3.0,90,0.00,,,0.00,weatherlink.com 1.10,2013-02-24 02:40:00,
2013-02-23 21:55:00,38.6,36.0,29.85,North,1,2.0,2.0,90,0.00,,,0.00,weatherlink.com 1.10,2013-02-24 02:55:00,
2013-02-23 22:10:00,38.7,36.0,29.85,North,360,0.0,2.0,91,0.00,,,0.00,weatherlink.com 1.10,2013-02-24 03:10:00,
2013-02-23 22:25:00,38.6,36.0,29.84,North,6,1.0,2.0,91,0.00,,,0.00,weatherlink.com 1.10,2013-02-24 03:25:00,
2013-02-23 22:40:00,38.6,36.0,29.84,North,359,3.0,4.0,91,0.00,,,0.00,weatherlink.com 1.10,2013-02-24 03:40:00,
2013-02-23 22:55:00,38.5,36.0,29.84,North,354,2.0,4.0,92,0.00,,,0.00,weatherlink.com 1.10,2013-02-24 03:55:00,
2013-02-23 23:10:00,38.4,37.0,29.83,North,8,2.0,4.0,93,0.00,,,0.00,weatherlink.com 1.10,2013-02-24 04:10:00,
2013-02-23 23:25:00,38.3,37.0,29.83,North,6,1.0,4.0,93,0.00,,,0.00,weatherlink.com 1.10,2013-02-24 04:25:00,
2013-02-23 23:41:00,38.1,36.0,29.82,NNW,348,0.0,2.0,93,0.00,,,0.00,weatherlink.com 1.10,2013-02-24 04:41:00,
2013-02-23 23:55:00,37.9,36.0,29.82,NNW,342,0.0,1.0,93,0.00,,,0.00,weatherlink.com 1.10,2013-02-24 04:55:00,